SWA2305 KMKE-KLAS
Flight info
| Callsign | SWA2305 |
|---|---|
| Flight time | N/A |
| Altitude | 32000 |
| Route | GREAS JAYEX OBH NACIK/N0454F340 DEN DIRDY HASSL TYEGR CHOWW4 |
| Aircraft | B738/M-SDE2E3FGHIRWXY/LB1 |
Departure
| Time | N/A |
|---|---|
| Airport | General Mitchell International Airport (KMKE) |
Arrival
| Time | 2026-05-03 23:01 |
|---|---|
| Airport | Harry Reid International Airport (KLAS) |
| Time | Latitude | Longitude | Altitude | Speed | Heading |
|---|---|---|---|---|---|
| 2026-05-03 21:22 | 40.19424 | -103.31927 | 34000 ft | 404 kts | 253° |
| 2026-05-03 21:22 | 40.18466 | -103.35382 | 33992 ft | 404 kts | 253° |
| 2026-05-03 21:23 | 40.16553 | -103.42276 | 33966 ft | 403 kts | 253° |
| 2026-05-03 21:23 | 40.14635 | -103.49166 | 33940 ft | 403 kts | 253° |
| 2026-05-03 21:24 | 40.12712 | -103.56060 | 33902 ft | 404 kts | 253° |
| 2026-05-03 21:24 | 40.10779 | -103.62968 | 33893 ft | 406 kts | 253° |
| 2026-05-03 21:25 | 40.08834 | -103.69898 | 33866 ft | 407 kts | 252° |
| 2026-05-03 21:25 | 40.06878 | -103.76850 | 33836 ft | 408 kts | 252° |
| 2026-05-03 21:26 | 40.04927 | -103.83764 | 33829 ft | 409 kts | 252° |
| 2026-05-03 21:26 | 40.02954 | -103.90739 | 33830 ft | 410 kts | 252° |
| 2026-05-03 21:27 | 40.00969 | -103.97738 | 33831 ft | 411 kts | 252° |
| 2026-05-03 21:27 | 39.98981 | -104.04728 | 33824 ft | 411 kts | 252° |
| 2026-05-03 21:28 | 39.96989 | -104.11714 | 33832 ft | 411 kts | 252° |
| 2026-05-03 21:28 | 39.94994 | -104.18690 | 33857 ft | 410 kts | 252° |
| 2026-05-03 21:29 | 39.93013 | -104.25600 | 33898 ft | 409 kts | 252° |
| 2026-05-03 21:29 | 39.91017 | -104.32542 | 33933 ft | 408 kts | 252° |
| 2026-05-03 21:30 | 39.89026 | -104.39452 | 33974 ft | 407 kts | 252° |
| 2026-05-03 21:30 | 39.87034 | -104.46345 | 34010 ft | 406 kts | 252° |
| 2026-05-03 21:31 | 39.85054 | -104.53183 | 34017 ft | 405 kts | 252° |
| 2026-05-03 21:31 | 39.83062 | -104.60047 | 33983 ft | 405 kts | 252° |
| 2026-05-03 21:32 | 39.81063 | -104.66906 | 33979 ft | 405 kts | 252° |
| 2026-05-03 21:32 | 39.79050 | -104.73759 | 33982 ft | 405 kts | 252° |
| 2026-05-03 21:33 | 39.77041 | -104.80566 | 33990 ft | 406 kts | 252° |
| 2026-05-03 21:33 | 39.75016 | -104.87414 | 33983 ft | 406 kts | 252° |
| 2026-05-03 21:34 | 39.72985 | -104.94272 | 33953 ft | 406 kts | 251° |
| 2026-05-03 21:34 | 39.70953 | -105.01118 | 33953 ft | 406 kts | 251° |
| 2026-05-03 21:35 | 39.68912 | -105.07973 | 33955 ft | 407 kts | 251° |
| 2026-05-03 21:35 | 39.66880 | -105.14783 | 33943 ft | 407 kts | 251° |
| 2026-05-03 21:36 | 39.64830 | -105.21637 | 33940 ft | 407 kts | 251° |
| 2026-05-03 21:36 | 39.62777 | -105.28483 | 33929 ft | 407 kts | 251° |
| 2026-05-03 21:37 | 39.60717 | -105.35331 | 33902 ft | 408 kts | 251° |
| 2026-05-03 21:37 | 39.58644 | -105.42210 | 33937 ft | 409 kts | 251° |
| 2026-05-03 21:38 | 39.56568 | -105.49079 | 33944 ft | 410 kts | 251° |
| 2026-05-03 21:38 | 39.54480 | -105.55969 | 33960 ft | 411 kts | 251° |
| 2026-05-03 21:39 | 39.52397 | -105.62828 | 33963 ft | 411 kts | 251° |
| 2026-05-03 21:39 | 39.50296 | -105.69725 | 33958 ft | 412 kts | 251° |
| 2026-05-03 21:40 | 39.48185 | -105.76637 | 33971 ft | 412 kts | 251° |
| 2026-05-03 21:40 | 39.46072 | -105.83543 | 33958 ft | 412 kts | 250° |
| 2026-05-03 21:41 | 39.43953 | -105.90448 | 33964 ft | 412 kts | 250° |
| 2026-05-03 21:41 | 39.41836 | -105.97329 | 33975 ft | 412 kts | 250° |
| 2026-05-03 21:42 | 39.39729 | -106.04160 | 33973 ft | 411 kts | 250° |
| 2026-05-03 21:42 | 39.37607 | -106.11023 | 33959 ft | 410 kts | 250° |
| 2026-05-03 21:43 | 39.36545 | -106.14451 | 34136 ft | 410 kts | 250° |
| 2026-05-03 21:43 | 39.35484 | -106.17869 | 34181 ft | 410 kts | 250° |
| 2026-05-03 21:43 | 39.33358 | -106.24712 | 34216 ft | 410 kts | 250° |
| 2026-05-03 21:44 | 39.31234 | -106.31532 | 34266 ft | 409 kts | 250° |
| 2026-05-03 21:44 | 39.29104 | -106.38350 | 34254 ft | 408 kts | 250° |
| 2026-05-03 21:45 | 39.26979 | -106.45138 | 34232 ft | 408 kts | 250° |
| 2026-05-03 21:45 | 39.24852 | -106.51914 | 34190 ft | 407 kts | 250° |
| 2026-05-03 21:46 | 39.22722 | -106.58690 | 34130 ft | 408 kts | 250° |
| 2026-05-03 21:46 | 39.20586 | -106.65460 | 34093 ft | 408 kts | 250° |
| 2026-05-03 21:47 | 39.18455 | -106.72201 | 34131 ft | 409 kts | 250° |
| 2026-05-03 21:47 | 39.16303 | -106.78991 | 34168 ft | 409 kts | 250° |
| 2026-05-03 21:48 | 39.14147 | -106.85779 | 34154 ft | 410 kts | 250° |
| 2026-05-03 21:48 | 39.13067 | -106.89170 | 33963 ft | 409 kts | 250° |
| 2026-05-03 21:48 | 39.11986 | -106.92563 | 33920 ft | 410 kts | 250° |
| 2026-05-03 21:49 | 39.09823 | -106.99339 | 33935 ft | 409 kts | 250° |
| 2026-05-03 21:49 | 39.07657 | -107.06108 | 33922 ft | 409 kts | 250° |
| 2026-05-03 21:50 | 39.05857 | -107.11722 | 33922 ft | 408 kts | 250° |
| 2026-05-03 21:50 | 39.03688 | -107.18470 | 33933 ft | 408 kts | 250° |
| 2026-05-03 21:51 | 39.01515 | -107.25214 | 33942 ft | 407 kts | 250° |
| 2026-05-03 21:51 | 38.99340 | -107.31949 | 33930 ft | 408 kts | 250° |
| 2026-05-03 21:52 | 38.97160 | -107.38687 | 33925 ft | 408 kts | 250° |
| 2026-05-03 21:52 | 38.94994 | -107.45366 | 33935 ft | 408 kts | 249° |
| 2026-05-03 21:53 | 38.92794 | -107.52087 | 33931 ft | 409 kts | 248° |
| 2026-05-03 21:53 | 38.90320 | -107.58667 | 33918 ft | 409 kts | 246° |
| 2026-05-03 21:54 | 38.87783 | -107.65185 | 33930 ft | 408 kts | 246° |
| 2026-05-03 21:54 | 38.85254 | -107.71712 | 33927 ft | 407 kts | 246° |
| 2026-05-03 21:55 | 38.82740 | -107.78223 | 33915 ft | 407 kts | 246° |
| 2026-05-03 21:55 | 38.80230 | -107.84725 | 33994 ft | 407 kts | 246° |
| 2026-05-03 21:56 | 38.77736 | -107.91175 | 34023 ft | 406 kts | 246° |
| 2026-05-03 21:56 | 38.75228 | -107.97649 | 34033 ft | 405 kts | 246° |
| 2026-05-03 21:57 | 38.72718 | -108.04114 | 34033 ft | 405 kts | 246° |
| 2026-05-03 21:57 | 38.70207 | -108.10568 | 34037 ft | 405 kts | 246° |
| 2026-05-03 21:58 | 38.67692 | -108.17017 | 34017 ft | 404 kts | 246° |
| 2026-05-03 21:58 | 38.65177 | -108.23453 | 33971 ft | 404 kts | 246° |
| 2026-05-03 21:59 | 38.62661 | -108.29879 | 33957 ft | 404 kts | 246° |
| 2026-05-03 21:59 | 38.60157 | -108.36266 | 33935 ft | 404 kts | 246° |
| 2026-05-03 22:00 | 38.57630 | -108.42690 | 33928 ft | 404 kts | 246° |
| 2026-05-03 22:00 | 38.55105 | -108.49098 | 33955 ft | 404 kts | 245° |
| 2026-05-03 22:01 | 38.52569 | -108.55516 | 33964 ft | 404 kts | 246° |
| 2026-05-03 22:01 | 38.50036 | -108.61919 | 33971 ft | 404 kts | 246° |
| 2026-05-03 22:02 | 38.47499 | -108.68319 | 33971 ft | 403 kts | 245° |
| 2026-05-03 22:02 | 38.44964 | -108.74697 | 33969 ft | 402 kts | 245° |
| 2026-05-03 22:03 | 38.42431 | -108.81060 | 33968 ft | 402 kts | 245° |
| 2026-05-03 22:03 | 38.39898 | -108.87409 | 33965 ft | 401 kts | 245° |
| 2026-05-03 22:04 | 38.37370 | -108.93732 | 33968 ft | 400 kts | 245° |
| 2026-05-03 22:04 | 38.34843 | -109.00039 | 33967 ft | 398 kts | 245° |
| 2026-05-03 22:05 | 38.32326 | -109.06310 | 33962 ft | 397 kts | 245° |
| 2026-05-03 22:05 | 38.29814 | -109.12555 | 33959 ft | 396 kts | 245° |
| 2026-05-03 22:06 | 38.27317 | -109.18752 | 33964 ft | 395 kts | 245° |
| 2026-05-03 22:06 | 38.24803 | -109.24978 | 33964 ft | 395 kts | 245° |
| 2026-05-03 22:07 | 38.22284 | -109.31203 | 33967 ft | 396 kts | 245° |
| 2026-05-03 22:07 | 38.19759 | -109.37430 | 33960 ft | 396 kts | 245° |
| 2026-05-03 22:08 | 38.17231 | -109.43652 | 33949 ft | 396 kts | 245° |
| 2026-05-03 22:08 | 38.14699 | -109.49872 | 33951 ft | 395 kts | 245° |
| 2026-05-03 22:09 | 38.12206 | -109.55984 | 33930 ft | 386 kts | 245° |
| 2026-05-03 22:10 | 38.08505 | -109.65055 | 33948 ft | 386 kts | 245° |
| 2026-05-03 22:10 | 38.06020 | -109.71105 | 33931 ft | 386 kts | 245° |
| 2026-05-03 22:11 | 38.03529 | -109.77167 | 33928 ft | 388 kts | 245° |
| 2026-05-03 22:11 | 38.01033 | -109.83231 | 33920 ft | 388 kts | 244° |
| 2026-05-03 22:12 | 37.98534 | -109.89295 | 33916 ft | 388 kts | 244° |
| 2026-05-03 22:12 | 37.96030 | -109.95357 | 33897 ft | 388 kts | 244° |
| 2026-05-03 22:13 | 37.93526 | -110.01410 | 33897 ft | 388 kts | 244° |
| 2026-05-03 22:13 | 37.91033 | -110.07421 | 33879 ft | 387 kts | 244° |
| 2026-05-03 22:14 | 37.88528 | -110.13451 | 33887 ft | 386 kts | 244° |
| 2026-05-03 22:14 | 37.86026 | -110.19462 | 33889 ft | 385 kts | 244° |
| 2026-05-03 22:15 | 37.83525 | -110.25460 | 33865 ft | 384 kts | 244° |
| 2026-05-03 22:15 | 37.81033 | -110.31427 | 33869 ft | 383 kts | 244° |
| 2026-05-03 22:16 | 37.78541 | -110.37381 | 33854 ft | 382 kts | 244° |
| 2026-05-03 22:16 | 37.76054 | -110.43319 | 33847 ft | 381 kts | 244° |
| 2026-05-03 22:17 | 37.73571 | -110.49226 | 33834 ft | 379 kts | 244° |
| 2026-05-03 22:17 | 37.71100 | -110.55096 | 33857 ft | 377 kts | 244° |
| 2026-05-03 22:18 | 37.68652 | -110.60902 | 33839 ft | 376 kts | 244° |
| 2026-05-03 22:18 | 37.66190 | -110.66729 | 33840 ft | 376 kts | 244° |
| 2026-05-03 22:19 | 37.63728 | -110.72548 | 33835 ft | 376 kts | 244° |
| 2026-05-03 22:19 | 37.61263 | -110.78364 | 33836 ft | 376 kts | 244° |
| 2026-05-03 22:20 | 37.58796 | -110.84175 | 33829 ft | 376 kts | 243° |
| 2026-05-03 22:20 | 37.56321 | -110.89983 | 33817 ft | 376 kts | 243° |
| 2026-05-03 22:21 | 37.53819 | -110.95766 | 33818 ft | 376 kts | 243° |
| 2026-05-03 22:21 | 37.51302 | -111.01558 | 33833 ft | 377 kts | 243° |
| 2026-05-03 22:22 | 37.48784 | -111.07353 | 33836 ft | 377 kts | 243° |
| 2026-05-03 22:22 | 37.46265 | -111.13145 | 33840 ft | 377 kts | 243° |
| 2026-05-03 22:23 | 37.43763 | -111.18887 | 33838 ft | 376 kts | 243° |
| 2026-05-03 22:23 | 37.41254 | -111.24637 | 33821 ft | 374 kts | 243° |
| 2026-05-03 22:24 | 37.38756 | -111.30346 | 33840 ft | 371 kts | 243° |
| 2026-05-03 22:24 | 37.36268 | -111.36028 | 33826 ft | 369 kts | 243° |
| 2026-05-03 22:25 | 37.33799 | -111.41659 | 33834 ft | 367 kts | 243° |
| 2026-05-03 22:25 | 37.31335 | -111.47267 | 33850 ft | 366 kts | 243° |
| 2026-05-03 22:26 | 37.28879 | -111.52849 | 33830 ft | 364 kts | 243° |
| 2026-05-03 22:26 | 37.26425 | -111.58416 | 33837 ft | 364 kts | 243° |
| 2026-05-03 22:27 | 37.23970 | -111.63976 | 33838 ft | 363 kts | 243° |
| 2026-05-03 22:27 | 37.21515 | -111.69525 | 33834 ft | 364 kts | 243° |
| 2026-05-03 22:28 | 37.19217 | -111.75180 | 33853 ft | 362 kts | 250° |
| 2026-05-03 22:28 | 37.17612 | -111.81184 | 33849 ft | 364 kts | 252° |
| 2026-05-03 22:29 | 37.16058 | -111.87190 | 33856 ft | 365 kts | 252° |
| 2026-05-03 22:29 | 37.14456 | -111.93239 | 33836 ft | 366 kts | 251° |
| 2026-05-03 22:30 | 37.12825 | -111.99292 | 33849 ft | 366 kts | 251° |
| 2026-05-03 22:30 | 37.11191 | -112.05341 | 33862 ft | 367 kts | 251° |
| 2026-05-03 22:31 | 37.09548 | -112.11405 | 33879 ft | 368 kts | 251° |
| 2026-05-03 22:31 | 37.07901 | -112.17465 | 33862 ft | 368 kts | 251° |
| 2026-05-03 22:32 | 37.06251 | -112.23518 | 33874 ft | 367 kts | 251° |
| 2026-05-03 22:32 | 37.04602 | -112.29556 | 33877 ft | 365 kts | 251° |
| 2026-05-03 22:33 | 37.02958 | -112.35562 | 33875 ft | 364 kts | 251° |
| 2026-05-03 22:33 | 37.01318 | -112.41545 | 33868 ft | 363 kts | 251° |
| 2026-05-03 22:34 | 36.99679 | -112.47504 | 33875 ft | 361 kts | 251° |
| 2026-05-03 22:34 | 36.98044 | -112.53428 | 33871 ft | 360 kts | 251° |
| 2026-05-03 22:35 | 36.96420 | -112.59291 | 33866 ft | 358 kts | 251° |
| 2026-05-03 22:35 | 36.94788 | -112.65175 | 33884 ft | 357 kts | 251° |
| 2026-05-03 22:36 | 36.93160 | -112.71034 | 33908 ft | 357 kts | 251° |
| 2026-05-03 22:36 | 36.91527 | -112.76897 | 33917 ft | 357 kts | 251° |
| 2026-05-03 22:37 | 36.89896 | -112.82745 | 33968 ft | 356 kts | 251° |
| 2026-05-03 22:37 | 36.88260 | -112.88592 | 33956 ft | 357 kts | 251° |
| 2026-05-03 22:38 | 36.86896 | -112.93456 | 33972 ft | 357 kts | 251° |
| 2026-05-03 22:38 | 36.85247 | -112.99323 | 33822 ft | 361 kts | 251° |
| 2026-05-03 22:38 | 36.84410 | -113.02298 | 33369 ft | 365 kts | 251° |
| 2026-05-03 22:39 | 36.83566 | -113.05293 | 32909 ft | 367 kts | 251° |
| 2026-05-03 22:39 | 36.82715 | -113.08312 | 32467 ft | 371 kts | 250° |
| 2026-05-03 22:39 | 36.81850 | -113.11377 | 32043 ft | 376 kts | 250° |
| 2026-05-03 22:39 | 36.80976 | -113.14469 | 31610 ft | 380 kts | 250° |
| 2026-05-03 22:40 | 36.80091 | -113.17595 | 31173 ft | 384 kts | 250° |
| 2026-05-03 22:40 | 36.79198 | -113.20748 | 30748 ft | 387 kts | 249° |
| 2026-05-03 22:40 | 36.78295 | -113.23931 | 30324 ft | 391 kts | 249° |
| 2026-05-03 22:40 | 36.77385 | -113.27136 | 29898 ft | 394 kts | 249° |
| 2026-05-03 22:41 | 36.76478 | -113.30326 | 29429 ft | 397 kts | 249° |
| 2026-05-03 22:41 | 36.75553 | -113.33578 | 28933 ft | 400 kts | 249° |
| 2026-05-03 22:41 | 36.74621 | -113.36852 | 28449 ft | 402 kts | 249° |
| 2026-05-03 22:41 | 36.73680 | -113.40139 | 27976 ft | 403 kts | 249° |
| 2026-05-03 22:42 | 36.72737 | -113.43442 | 27527 ft | 404 kts | 249° |
| 2026-05-03 22:42 | 36.71796 | -113.46746 | 27101 ft | 406 kts | 249° |
| 2026-05-03 22:42 | 36.70849 | -113.50070 | 26662 ft | 408 kts | 249° |
| 2026-05-03 22:42 | 36.69897 | -113.53415 | 26239 ft | 411 kts | 249° |
| 2026-05-03 22:43 | 36.68936 | -113.56784 | 25820 ft | 414 kts | 249° |
| 2026-05-03 22:43 | 36.67965 | -113.60182 | 25407 ft | 418 kts | 249° |
| 2026-05-03 22:43 | 36.66991 | -113.63589 | 24968 ft | 414 kts | 248° |
| 2026-05-03 22:43 | 36.66037 | -113.66930 | 24531 ft | 404 kts | 248° |
| 2026-05-03 22:44 | 36.65110 | -113.70169 | 24109 ft | 390 kts | 248° |
| 2026-05-03 22:44 | 36.64213 | -113.73299 | 23678 ft | 378 kts | 248° |
| 2026-05-03 22:44 | 36.63341 | -113.76337 | 23245 ft | 367 kts | 248° |
| 2026-05-03 22:44 | 36.62490 | -113.79295 | 22763 ft | 359 kts | 247° |
| 2026-05-03 22:45 | 36.61655 | -113.82194 | 22279 ft | 353 kts | 248° |
| 2026-05-03 22:45 | 36.60826 | -113.85068 | 21815 ft | 355 kts | 247° |
| 2026-05-03 22:45 | 36.59985 | -113.87976 | 21338 ft | 359 kts | 247° |
| 2026-05-03 22:45 | 36.59132 | -113.90897 | 20881 ft | 358 kts | 245° |
| 2026-05-03 22:46 | 36.57927 | -113.93559 | 20417 ft | 352 kts | 231° |
| 2026-05-03 22:46 | 36.56426 | -113.95952 | 19985 ft | 349 kts | 230° |
| 2026-05-03 22:46 | 36.54944 | -113.98284 | 19552 ft | 348 kts | 229° |
| 2026-05-03 22:46 | 36.53446 | -114.00649 | 19100 ft | 347 kts | 229° |
| 2026-05-03 22:47 | 36.51960 | -114.03012 | 18678 ft | 347 kts | 229° |
| 2026-05-03 22:47 | 36.50478 | -114.05382 | 18254 ft | 346 kts | 229° |
| 2026-05-03 22:47 | 36.49003 | -114.07741 | 17829 ft | 346 kts | 229° |
| 2026-05-03 22:47 | 36.47533 | -114.10105 | 17347 ft | 345 kts | 229° |
| 2026-05-03 22:48 | 36.46068 | -114.12462 | 16881 ft | 345 kts | 229° |
| 2026-05-03 22:48 | 36.44603 | -114.14819 | 16400 ft | 344 kts | 229° |
| 2026-05-03 22:48 | 36.43137 | -114.17173 | 15950 ft | 344 kts | 229° |
| 2026-05-03 22:48 | 36.41669 | -114.19530 | 15499 ft | 344 kts | 229° |
| 2026-05-03 22:49 | 36.40215 | -114.21861 | 15112 ft | 339 kts | 229° |
| 2026-05-03 22:49 | 36.38776 | -114.24158 | 14757 ft | 335 kts | 228° |
| 2026-05-03 22:49 | 36.37360 | -114.26386 | 14376 ft | 331 kts | 228° |
| 2026-05-03 22:49 | 36.35944 | -114.28604 | 14033 ft | 325 kts | 227° |
| 2026-05-03 22:50 | 36.34548 | -114.30789 | 13714 ft | 321 kts | 227° |
| 2026-05-03 22:50 | 36.33166 | -114.32953 | 13376 ft | 318 kts | 227° |
| 2026-05-03 22:50 | 36.31798 | -114.35092 | 13009 ft | 316 kts | 227° |
| 2026-05-03 22:50 | 36.30441 | -114.37215 | 12646 ft | 313 kts | 227° |
| 2026-05-03 22:51 | 36.29096 | -114.39321 | 12324 ft | 310 kts | 227° |
| 2026-05-03 22:51 | 36.27767 | -114.41403 | 12007 ft | 307 kts | 227° |
| 2026-05-03 22:51 | 36.26444 | -114.43468 | 11680 ft | 305 kts | 227° |
| 2026-05-03 22:51 | 36.25133 | -114.45512 | 11359 ft | 302 kts | 227° |
| 2026-05-03 22:52 | 36.23821 | -114.47528 | 11035 ft | 299 kts | 227° |
| 2026-05-03 22:52 | 36.22515 | -114.49528 | 10715 ft | 297 kts | 226° |
| 2026-05-03 22:52 | 36.21224 | -114.51505 | 10405 ft | 294 kts | 227° |
| 2026-05-03 22:52 | 36.19938 | -114.53470 | 10095 ft | 293 kts | 227° |
| 2026-05-03 22:53 | 36.18659 | -114.55431 | 9787 ft | 292 kts | 227° |
| 2026-05-03 22:53 | 36.17404 | -114.57356 | 9491 ft | 290 kts | 227° |
| 2026-05-03 22:53 | 36.16156 | -114.59267 | 9176 ft | 289 kts | 227° |
| 2026-05-03 22:53 | 36.14900 | -114.61182 | 8815 ft | 286 kts | 226° |
| 2026-05-03 22:54 | 36.13652 | -114.63086 | 8508 ft | 283 kts | 228° |
| 2026-05-03 22:54 | 36.12417 | -114.64968 | 8203 ft | 279 kts | 227° |
| 2026-05-03 22:54 | 36.11211 | -114.66813 | 7945 ft | 270 kts | 227° |
| 2026-05-03 22:54 | 36.10075 | -114.68555 | 7941 ft | 252 kts | 227° |
| 2026-05-03 22:55 | 36.09003 | -114.70193 | 7923 ft | 237 kts | 226° |
| 2026-05-03 22:55 | 36.08019 | -114.71704 | 7932 ft | 222 kts | 228° |
| 2026-05-03 22:55 | 36.07449 | -114.73481 | 7924 ft | 232 kts | 261° |
| 2026-05-03 22:55 | 36.07457 | -114.75534 | 7680 ft | 245 kts | 263° |
| 2026-05-03 22:56 | 36.07446 | -114.77644 | 7415 ft | 245 kts | 262° |
| 2026-05-03 22:56 | 36.07432 | -114.79722 | 7117 ft | 239 kts | 264° |
| 2026-05-03 22:56 | 36.07426 | -114.81754 | 6817 ft | 234 kts | 262° |
| 2026-05-03 22:56 | 36.07420 | -114.83752 | 6515 ft | 231 kts | 262° |
| 2026-05-03 22:57 | 36.07411 | -114.85734 | 6233 ft | 231 kts | 263° |
| 2026-05-03 22:57 | 36.07404 | -114.87706 | 5936 ft | 229 kts | 263° |
| 2026-05-03 22:57 | 36.07401 | -114.89671 | 5641 ft | 228 kts | 263° |
| 2026-05-03 22:57 | 36.07396 | -114.91649 | 5332 ft | 230 kts | 263° |
| 2026-05-03 22:58 | 36.07391 | -114.93597 | 5056 ft | 225 kts | 263° |
| 2026-05-03 22:58 | 36.07383 | -114.95514 | 4750 ft | 219 kts | 263° |
| 2026-05-03 22:58 | 36.07383 | -114.97341 | 4510 ft | 206 kts | 261° |
| 2026-05-03 22:58 | 36.07379 | -114.99092 | 4276 ft | 202 kts | 262° |
| 2026-05-03 22:59 | 36.07376 | -115.00829 | 4014 ft | 201 kts | 261° |
| 2026-05-03 22:59 | 36.07375 | -115.02499 | 3779 ft | 193 kts | 262° |
| 2026-05-03 22:59 | 36.07375 | -115.04109 | 3533 ft | 175 kts | 262° |
| 2026-05-03 22:59 | 36.07371 | -115.05531 | 3334 ft | 157 kts | 264° |
| 2026-05-03 23:00 | 36.07374 | -115.06835 | 3161 ft | 151 kts | 265° |
| 2026-05-03 23:00 | 36.07369 | -115.08176 | 2961 ft | 161 kts | 264° |
| 2026-05-03 23:00 | 36.07373 | -115.09579 | 2729 ft | 164 kts | 261° |
| 2026-05-03 23:00 | 36.07363 | -115.10980 | 2456 ft | 162 kts | 261° |
| 2026-05-03 23:01 | 36.07370 | -115.12319 | 2270 ft | 153 kts | 262° |
| 2026-05-03 23:01 | 36.07360 | -115.13567 | 2186 ft | 125 kts | 268° |
| 2026-05-03 23:01 | 36.07369 | -115.14395 | 2191 ft | 74 kts | 266° |
| 2026-05-03 23:01 | 36.07385 | -115.14840 | 2192 ft | 41 kts | 281° |
| 2026-05-03 23:02 | 36.07458 | -115.15022 | 2187 ft | 10 kts | 303° |
| 2026-05-03 23:02 | 36.07498 | -115.15095 | 2187 ft | 10 kts | 317° |
| 2026-05-03 23:02 | 36.07525 | -115.15122 | 2188 ft | 2 kts | 324° |
| 2026-05-03 23:02 | 36.07538 | -115.15134 | 2188 ft | 5 kts | 326° |
| 2026-05-03 23:03 | 36.07596 | -115.15171 | 2191 ft | 14 kts | 335° |
| 2026-05-03 23:03 | 36.07711 | -115.15238 | 2189 ft | 23 kts | 334° |
| 2026-05-03 23:03 | 36.07807 | -115.15137 | 2187 ft | 28 kts | 92° |
| 2026-05-03 23:03 | 36.07789 | -115.14870 | 2188 ft | 35 kts | 94° |
| 2026-05-03 23:04 | 36.07767 | -115.14559 | 2188 ft | 36 kts | 93° |
| 2026-05-03 23:04 | 36.07896 | -115.14436 | 2189 ft | 25 kts | 0° |
| 2026-05-03 23:04 | 36.08055 | -115.14485 | 2188 ft | 23 kts | 346° |
| 2026-05-03 23:04 | 36.08170 | -115.14570 | 2189 ft | 16 kts | 265° |
| 2026-05-03 23:05 | 36.08156 | -115.14632 | 2188 ft | 1 kts | 255° |
| 2026-05-03 23:05 | 36.08155 | -115.14635 | 2187 ft | 0 kts | 254° |